sensor_id;sensor_type;location;lat;lon;timestamp;P1;durP1;ratioP1;P2;durP2;ratioP2
39716;SDS011;25392;50.364;11.206;2022-07-06T15:57:38;15.48;;;2.47;;
39716;SDS011;25392;50.364;11.206;2022-07-06T16:00:04;13.63;;;2.50;;
39716;SDS011;25392;50.364;11.206;2022-07-06T16:02:37;18.80;;;3.00;;
39716;SDS011;25392;50.364;11.206;2022-07-06T16:05:02;13.98;;;2.55;;
39716;SDS011;25392;50.364;11.206;2022-07-06T16:07:28;16.70;;;2.60;;
39716;SDS011;25392;50.364;11.206;2022-07-06T16:09:54;20.25;;;2.97;;
39716;SDS011;25392;50.364;11.206;2022-07-06T16:12:19;12.98;;;2.25;;
39716;SDS011;25392;50.364;11.206;2022-07-06T16:14:45;11.88;;;2.25;;
39716;SDS011;25392;50.364;11.206;2022-07-06T16:17:10;15.95;;;3.10;;
39716;SDS011;25392;50.364;11.206;2022-07-06T16:19:39;15.07;;;2.30;;
39716;SDS011;25392;50.364;11.206;2022-07-06T16:22:04;11.65;;;2.33;;
39716;SDS011;25392;50.364;11.206;2022-07-06T16:24:30;14.57;;;2.75;;
39716;SDS011;25392;50.364;11.206;2022-07-06T16:26:56;6.10;;;1.60;;
39716;SDS011;25392;50.364;11.206;2022-07-06T16:29:21;15.18;;;1.63;;
39716;SDS011;25392;50.364;11.206;2022-07-06T16:31:47;12.73;;;2.58;;
39716;SDS011;25392;50.364;11.206;2022-07-06T16:34:12;12.57;;;2.10;;
39716;SDS011;25392;50.364;11.206;2022-07-06T16:36:38;7.75;;;1.70;;
39716;SDS011;25392;50.364;11.206;2022-07-06T16:39:04;9.07;;;2.05;;
39716;SDS011;25392;50.364;11.206;2022-07-06T16:41:29;7.05;;;1.48;;
39716;SDS011;25392;50.364;11.206;2022-07-06T16:43:55;8.63;;;1.90;;
39716;SDS011;25392;50.364;11.206;2022-07-06T16:46:20;12.35;;;1.80;;
39716;SDS011;25392;50.364;11.206;2022-07-06T16:48:46;7.60;;;1.75;;
39716;SDS011;25392;50.364;11.206;2022-07-06T16:51:11;9.55;;;1.75;;
39716;SDS011;25392;50.364;11.206;2022-07-06T16:53:37;5.38;;;1.63;;
39716;SDS011;25392;50.364;11.206;2022-07-06T16:56:03;7.97;;;1.80;;
39716;SDS011;25392;50.364;11.206;2022-07-06T16:58:28;9.15;;;1.98;;
39716;SDS011;25392;50.364;11.206;2022-07-06T17:00:54;7.13;;;1.90;;
39716;SDS011;25392;50.364;11.206;2022-07-06T17:03:19;7.95;;;1.90;;
39716;SDS011;25392;50.364;11.206;2022-07-06T17:05:45;6.85;;;1.50;;
39716;SDS011;25392;50.364;11.206;2022-07-06T17:08:11;5.22;;;1.60;;
39716;SDS011;25392;50.364;11.206;2022-07-06T17:10:37;6.03;;;1.65;;
39716;SDS011;25392;50.364;11.206;2022-07-06T17:13:03;6.15;;;1.60;;
39716;SDS011;25392;50.364;11.206;2022-07-06T17:15:29;6.47;;;1.77;;
39716;SDS011;25392;50.364;11.206;2022-07-06T17:17:56;6.00;;;1.73;;
39716;SDS011;25392;50.364;11.206;2022-07-06T17:20:23;5.57;;;1.52;;
39716;SDS011;25392;50.364;11.206;2022-07-06T17:22:49;8.57;;;1.90;;
39716;SDS011;25392;50.364;11.206;2022-07-06T17:25:15;6.25;;;1.33;;
39716;SDS011;25392;50.364;11.206;2022-07-06T17:27:41;7.32;;;1.50;;
39716;SDS011;25392;50.364;11.206;2022-07-06T17:30:07;6.65;;;1.65;;
39716;SDS011;25392;50.364;11.206;2022-07-06T17:32:33;6.43;;;1.83;;
39716;SDS011;25392;50.364;11.206;2022-07-06T17:34:58;5.72;;;1.73;;
39716;SDS011;25392;50.364;11.206;2022-07-06T17:37:24;6.68;;;1.85;;
39716;SDS011;25392;50.364;11.206;2022-07-06T17:39:50;5.63;;;1.52;;
39716;SDS011;25392;50.364;11.206;2022-07-06T17:42:15;10.10;;;1.77;;
39716;SDS011;25392;50.364;11.206;2022-07-06T17:44:41;5.53;;;1.55;;
39716;SDS011;25392;50.364;11.206;2022-07-06T17:47:07;5.47;;;1.30;;
39716;SDS011;25392;50.364;11.206;2022-07-06T17:49:33;3.50;;;0.90;;
39716;SDS011;25392;50.364;11.206;2022-07-06T17:51:59;6.60;;;1.38;;
39716;SDS011;25392;50.364;11.206;2022-07-06T17:54:25;6.55;;;1.30;;
39716;SDS011;25392;50.364;11.206;2022-07-06T17:56:51;4.35;;;1.30;;
39716;SDS011;25392;50.364;11.206;2022-07-06T17:59:16;3.75;;;1.13;;
39716;SDS011;25392;50.364;11.206;2022-07-06T18:01:42;5.60;;;1.20;;
39716;SDS011;25392;50.364;11.206;2022-07-06T18:04:07;2.78;;;1.23;;
39716;SDS011;25392;50.364;11.206;2022-07-06T18:06:33;4.82;;;1.30;;
39716;SDS011;25392;50.364;11.206;2022-07-06T18:08:59;4.45;;;1.25;;
39716;SDS011;25392;50.364;11.206;2022-07-06T18:11:25;5.40;;;1.75;;
39716;SDS011;25392;50.364;11.206;2022-07-06T18:13:50;3.60;;;1.00;;
39716;SDS011;25392;50.364;11.206;2022-07-06T18:16:17;3.22;;;1.02;;
39716;SDS011;25392;50.364;11.206;2022-07-06T18:18:42;2.88;;;1.23;;
39716;SDS011;25392;50.364;11.206;2022-07-06T18:21:08;4.68;;;1.20;;
39716;SDS011;25392;50.364;11.206;2022-07-06T18:23:33;1.98;;;1.15;;
39716;SDS011;25392;50.364;11.206;2022-07-06T18:25:59;5.72;;;1.40;;
39716;SDS011;25392;50.364;11.206;2022-07-06T18:28:27;3.72;;;1.60;;
39716;SDS011;25392;50.364;11.206;2022-07-06T18:30:53;3.75;;;1.33;;
39716;SDS011;25392;50.364;11.206;2022-07-06T18:33:19;3.83;;;0.82;;
39716;SDS011;25392;50.364;11.206;2022-07-06T18:35:45;3.85;;;0.90;;
39716;SDS011;25392;50.364;11.206;2022-07-06T18:38:10;1.95;;;1.23;;
39716;SDS011;25392;50.364;11.206;2022-07-06T18:40:37;3.10;;;0.98;;
39716;SDS011;25392;50.364;11.206;2022-07-06T18:43:03;3.20;;;1.43;;
39716;SDS011;25392;50.364;11.206;2022-07-06T18:45:29;3.17;;;1.30;;
39716;SDS011;25392;50.364;11.206;2022-07-06T18:47:55;4.53;;;1.13;;
39716;SDS011;25392;50.364;11.206;2022-07-06T18:50:21;3.10;;;1.10;;
39716;SDS011;25392;50.364;11.206;2022-07-06T18:52:47;3.42;;;0.98;;
39716;SDS011;25392;50.364;11.206;2022-07-06T18:55:13;5.57;;;1.27;;
39716;SDS011;25392;50.364;11.206;2022-07-06T18:57:38;4.57;;;1.15;;
39716;SDS011;25392;50.364;11.206;2022-07-06T19:00:05;3.40;;;0.90;;
39716;SDS011;25392;50.364;11.206;2022-07-06T19:02:31;2.88;;;1.15;;
39716;SDS011;25392;50.364;11.206;2022-07-06T19:04:58;3.15;;;0.90;;
39716;SDS011;25392;50.364;11.206;2022-07-06T19:07:23;3.15;;;1.00;;
39716;SDS011;25392;50.364;11.206;2022-07-06T19:09:49;2.15;;;1.05;;
39716;SDS011;25392;50.364;11.206;2022-07-06T19:12:15;2.97;;;0.88;;
39716;SDS011;25392;50.364;11.206;2022-07-06T19:14:40;3.80;;;0.93;;
39716;SDS011;25392;50.364;11.206;2022-07-06T19:17:06;2.03;;;0.70;;
39716;SDS011;25392;50.364;11.206;2022-07-06T19:19:32;3.75;;;0.80;;
39716;SDS011;25392;50.364;11.206;2022-07-06T19:21:57;3.88;;;0.90;;
39716;SDS011;25392;50.364;11.206;2022-07-06T19:24:23;2.33;;;0.88;;
39716;SDS011;25392;50.364;11.206;2022-07-06T19:26:49;3.67;;;1.05;;
39716;SDS011;25392;50.364;11.206;2022-07-06T19:29:14;4.22;;;0.80;;
39716;SDS011;25392;50.364;11.206;2022-07-06T19:31:40;3.38;;;0.80;;
39716;SDS011;25392;50.364;11.206;2022-07-06T19:34:06;2.50;;;0.70;;
39716;SDS011;25392;50.364;11.206;2022-07-06T19:36:32;3.42;;;1.17;;
39716;SDS011;25392;50.364;11.206;2022-07-06T19:38:58;3.15;;;1.13;;
39716;SDS011;25392;50.364;11.206;2022-07-06T19:41:24;2.10;;;0.80;;
39716;SDS011;25392;50.364;11.206;2022-07-06T19:43:50;1.85;;;0.50;;
39716;SDS011;25392;50.364;11.206;2022-07-06T19:46:16;2.22;;;0.95;;
39716;SDS011;25392;50.364;11.206;2022-07-06T19:48:41;3.50;;;1.00;;
39716;SDS011;25392;50.364;11.206;2022-07-06T19:51:07;3.28;;;1.05;;
39716;SDS011;25392;50.364;11.206;2022-07-06T19:53:35;1.48;;;0.70;;
39716;SDS011;25392;50.364;11.206;2022-07-06T19:56:01;1.42;;;0.80;;
39716;SDS011;25392;50.364;11.206;2022-07-06T19:58:27;2.33;;;0.68;;
39716;SDS011;25392;50.364;11.206;2022-07-06T20:00:53;2.60;;;0.80;;
39716;SDS011;25392;50.364;11.206;2022-07-06T20:03:22;1.65;;;0.80;;
39716;SDS011;25392;50.364;11.206;2022-07-06T20:05:52;1.67;;;1.02;;
39716;SDS011;25392;50.364;11.206;2022-07-06T20:08:19;1.77;;;0.77;;
39716;SDS011;25392;50.364;11.206;2022-07-06T20:10:44;1.08;;;0.63;;
39716;SDS011;25392;50.364;11.206;2022-07-06T20:13:10;3.90;;;1.10;;
39716;SDS011;25392;50.364;11.206;2022-07-06T20:15:36;1.52;;;0.60;;
39716;SDS011;25392;50.364;11.206;2022-07-06T20:18:01;3.72;;;1.10;;
39716;SDS011;25392;50.364;11.206;2022-07-06T20:20:27;1.35;;;0.90;;
39716;SDS011;25392;50.364;11.206;2022-07-06T20:22:53;3.15;;;1.10;;
39716;SDS011;25392;50.364;11.206;2022-07-06T20:25:19;1.15;;;0.65;;
39716;SDS011;25392;50.364;11.206;2022-07-06T20:27:45;3.15;;;0.90;;
39716;SDS011;25392;50.364;11.206;2022-07-06T20:30:11;3.03;;;0.80;;
39716;SDS011;25392;50.364;11.206;2022-07-06T20:32:37;2.05;;;0.73;;
39716;SDS011;25392;50.364;11.206;2022-07-06T20:35:04;2.10;;;0.68;;
39716;SDS011;25392;50.364;11.206;2022-07-06T20:37:31;2.40;;;0.70;;
39716;SDS011;25392;50.364;11.206;2022-07-06T20:39:56;3.20;;;0.93;;
39716;SDS011;25392;50.364;11.206;2022-07-06T20:42:22;2.30;;;0.77;;
39716;SDS011;25392;50.364;11.206;2022-07-06T20:44:47;2.45;;;0.90;;
39716;SDS011;25392;50.364;11.206;2022-07-06T20:47:13;1.77;;;0.70;;
39716;SDS011;25392;50.364;11.206;2022-07-06T20:49:39;1.65;;;0.70;;
39716;SDS011;25392;50.364;11.206;2022-07-06T20:52:05;2.15;;;0.60;;
39716;SDS011;25392;50.364;11.206;2022-07-06T20:54:31;2.13;;;0.80;;
39716;SDS011;25392;50.364;11.206;2022-07-06T20:56:57;1.30;;;0.68;;
39716;SDS011;25392;50.364;11.206;2022-07-06T20:59:23;1.80;;;0.73;;
39716;SDS011;25392;50.364;11.206;2022-07-06T21:01:48;0.82;;;0.50;;
39716;SDS011;25392;50.364;11.206;2022-07-06T21:04:14;1.15;;;0.60;;
39716;SDS011;25392;50.364;11.206;2022-07-06T21:06:40;1.83;;;0.70;;
39716;SDS011;25392;50.364;11.206;2022-07-06T21:09:05;1.13;;;0.63;;
39716;SDS011;25392;50.364;11.206;2022-07-06T21:11:31;1.30;;;0.65;;
39716;SDS011;25392;50.364;11.206;2022-07-06T21:13:57;2.15;;;0.60;;
39716;SDS011;25392;50.364;11.206;2022-07-06T21:16:22;2.03;;;0.65;;
39716;SDS011;25392;50.364;11.206;2022-07-06T21:18:48;1.27;;;0.50;;
39716;SDS011;25392;50.364;11.206;2022-07-06T21:21:13;1.08;;;0.60;;
39716;SDS011;25392;50.364;11.206;2022-07-06T21:23:39;1.77;;;0.80;;
39716;SDS011;25392;50.364;11.206;2022-07-06T21:26:05;1.98;;;0.65;;
39716;SDS011;25392;50.364;11.206;2022-07-06T21:28:31;1.67;;;0.68;;
39716;SDS011;25392;50.364;11.206;2022-07-06T21:30:58;2.38;;;0.90;;
39716;SDS011;25392;50.364;11.206;2022-07-06T21:33:24;1.10;;;0.70;;
39716;SDS011;25392;50.364;11.206;2022-07-06T21:35:51;0.80;;;0.60;;
39716;SDS011;25392;50.364;11.206;2022-07-06T21:38:17;1.58;;;0.70;;
39716;SDS011;25392;50.364;11.206;2022-07-06T21:40:43;0.85;;;0.50;;
39716;SDS011;25392;50.364;11.206;2022-07-06T21:43:09;1.30;;;0.70;;
39716;SDS011;25392;50.364;11.206;2022-07-06T21:45:35;1.08;;;0.63;;
39716;SDS011;25392;50.364;11.206;2022-07-06T21:48:01;1.55;;;0.70;;
39716;SDS011;25392;50.364;11.206;2022-07-06T21:50:27;1.15;;;0.85;;
39716;SDS011;25392;50.364;11.206;2022-07-06T21:52:53;0.95;;;0.60;;
39716;SDS011;25392;50.364;11.206;2022-07-06T21:55:19;1.40;;;0.65;;
39716;SDS011;25392;50.364;11.206;2022-07-06T21:57:44;1.30;;;0.70;;
39716;SDS011;25392;50.364;11.206;2022-07-06T22:00:10;0.93;;;0.50;;
39716;SDS011;25392;50.364;11.206;2022-07-06T22:02:39;0.93;;;0.45;;
39716;SDS011;25392;50.364;11.206;2022-07-06T22:05:05;2.42;;;0.60;;
39716;SDS011;25392;50.364;11.206;2022-07-06T22:07:31;0.77;;;0.40;;
39716;SDS011;25392;50.364;11.206;2022-07-06T22:09:57;1.10;;;0.68;;
39716;SDS011;25392;50.364;11.206;2022-07-06T22:12:23;0.80;;;0.60;;
39716;SDS011;25392;50.364;11.206;2022-07-06T22:14:48;0.82;;;0.50;;
39716;SDS011;25392;50.364;11.206;2022-07-06T22:17:14;2.47;;;0.70;;
39716;SDS011;25392;50.364;11.206;2022-07-06T22:19:40;0.80;;;0.52;;
39716;SDS011;25392;50.364;11.206;2022-07-06T22:22:05;1.48;;;0.60;;
39716;SDS011;25392;50.364;11.206;2022-07-06T22:24:31;1.20;;;0.70;;
39716;SDS011;25392;50.364;11.206;2022-07-06T22:26:57;1.02;;;0.40;;
39716;SDS011;25392;50.364;11.206;2022-07-06T22:29:22;1.10;;;0.80;;
39716;SDS011;25392;50.364;11.206;2022-07-06T22:31:48;0.90;;;0.57;;
39716;SDS011;25392;50.364;11.206;2022-07-06T22:34:13;1.17;;;0.40;;
39716;SDS011;25392;50.364;11.206;2022-07-06T22:36:39;0.85;;;0.52;;
39716;SDS011;25392;50.364;11.206;2022-07-06T22:39:04;1.65;;;0.50;;
39716;SDS011;25392;50.364;11.206;2022-07-06T22:41:32;0.95;;;0.52;;
39716;SDS011;25392;50.364;11.206;2022-07-06T22:43:58;1.10;;;0.60;;
39716;SDS011;25392;50.364;11.206;2022-07-06T22:46:24;1.20;;;0.43;;
39716;SDS011;25392;50.364;11.206;2022-07-06T22:48:51;0.88;;;0.50;;
39716;SDS011;25392;50.364;11.206;2022-07-06T22:51:16;0.90;;;0.55;;
39716;SDS011;25392;50.364;11.206;2022-07-06T22:53:42;1.13;;;0.60;;
39716;SDS011;25392;50.364;11.206;2022-07-06T22:56:08;1.02;;;0.63;;
39716;SDS011;25392;50.364;11.206;2022-07-06T22:58:34;1.13;;;0.40;;
39716;SDS011;25392;50.364;11.206;2022-07-06T23:01:05;1.05;;;0.63;;
39716;SDS011;25392;50.364;11.206;2022-07-06T23:03:32;0.80;;;0.40;;
39716;SDS011;25392;50.364;11.206;2022-07-06T23:05:58;0.73;;;0.50;;
39716;SDS011;25392;50.364;11.206;2022-07-06T23:08:24;1.23;;;0.60;;
39716;SDS011;25392;50.364;11.206;2022-07-06T23:10:50;1.27;;;0.50;;
39716;SDS011;25392;50.364;11.206;2022-07-06T23:13:15;0.32;;;0.30;;
39716;SDS011;25392;50.364;11.206;2022-07-06T23:15:41;0.70;;;0.50;;
39716;SDS011;25392;50.364;11.206;2022-07-06T23:18:07;1.25;;;0.40;;
39716;SDS011;25392;50.364;11.206;2022-07-06T23:20:32;1.23;;;0.40;;
39716;SDS011;25392;50.364;11.206;2022-07-06T23:22:58;0.65;;;0.40;;
39716;SDS011;25392;50.364;11.206;2022-07-06T23:25:24;0.68;;;0.43;;
39716;SDS011;25392;50.364;11.206;2022-07-06T23:27:50;0.73;;;0.35;;
39716;SDS011;25392;50.364;11.206;2022-07-06T23:30:15;0.75;;;0.40;;
39716;SDS011;25392;50.364;11.206;2022-07-06T23:32:41;1.35;;;0.60;;
39716;SDS011;25392;50.364;11.206;2022-07-06T23:35:07;0.50;;;0.40;;
39716;SDS011;25392;50.364;11.206;2022-07-06T23:37:34;0.73;;;0.50;;
39716;SDS011;25392;50.364;11.206;2022-07-06T23:40:00;1.90;;;1.00;;
39716;SDS011;25392;50.364;11.206;2022-07-06T23:42:26;0.77;;;0.40;;
39716;SDS011;25392;50.364;11.206;2022-07-06T23:44:51;0.75;;;0.45;;
39716;SDS011;25392;50.364;11.206;2022-07-06T23:47:17;1.35;;;0.43;;
39716;SDS011;25392;50.364;11.206;2022-07-06T23:49:43;0.50;;;0.30;;
39716;SDS011;25392;50.364;11.206;2022-07-06T23:52:09;0.52;;;0.40;;
39716;SDS011;25392;50.364;11.206;2022-07-06T23:54:34;0.50;;;0.40;;
39716;SDS011;25392;50.364;11.206;2022-07-06T23:57:00;0.80;;;0.50;;
39716;SDS011;25392;50.364;11.206;2022-07-06T23:59:25;1.00;;;0.40;;
